createdAt,value
2023-04-16T00:00:03.589Z,10.90
2023-04-16T00:03:13.702Z,10.07
2023-04-16T00:06:16.557Z,9.80
2023-04-16T00:09:19.276Z,10.50
2023-04-16T00:12:23.852Z,11.65
2023-04-16T00:15:26.273Z,10.67
2023-04-16T00:18:38.356Z,10.30
2023-04-16T00:21:41.259Z,11.27
2023-04-16T00:24:43.724Z,10.40
2023-04-16T00:27:46.289Z,10.48
2023-04-16T00:30:48.808Z,10.53
2023-04-16T00:33:51.612Z,11.43
2023-04-16T00:36:54.107Z,10.68
2023-04-16T00:39:56.600Z,10.90
2023-04-16T00:42:59.462Z,10.93
2023-04-16T00:46:07.068Z,11.73
2023-04-16T00:49:10.580Z,12.82
2023-04-16T00:52:13.354Z,12.52
2023-04-16T00:55:18.980Z,13.27
2023-04-16T00:58:22.013Z,12.48
2023-04-16T01:01:25.138Z,10.73
2023-04-16T01:04:29.376Z,11.52
2023-04-16T01:07:32.246Z,10.68
2023-04-16T01:10:34.829Z,10.13
2023-04-16T01:13:39.479Z,10.38
2023-04-16T01:16:42.239Z,10.27
2023-04-16T01:19:44.970Z,9.45
2023-04-16T01:22:47.505Z,10.18
2023-04-16T01:25:50.087Z,9.43
2023-04-16T01:28:52.581Z,11.07
2023-04-16T01:31:55.137Z,11.00
2023-04-16T01:35:03.950Z,11.90
2023-04-16T01:38:08.096Z,12.10
2023-04-16T01:41:10.757Z,10.70
2023-04-16T01:44:13.702Z,9.77
2023-04-16T01:47:18.449Z,9.37
2023-04-16T01:50:21.900Z,9.93
2023-04-16T01:53:24.534Z,10.30
2023-04-16T01:56:27.140Z,9.70
2023-04-16T01:59:29.747Z,9.80
2023-04-16T02:02:32.739Z,10.13
2023-04-16T02:05:35.316Z,8.82
2023-04-16T02:08:37.927Z,9.02
2023-04-16T02:11:40.511Z,8.70
2023-04-16T02:14:43.727Z,10.48
2023-04-16T02:17:48.988Z,9.80
2023-04-16T02:20:52.488Z,9.77
2023-04-16T02:23:55.046Z,9.65
2023-04-16T02:27:02.772Z,9.05
2023-04-16T02:30:06.189Z,10.15
2023-04-16T02:33:12.059Z,9.23
2023-04-16T02:36:18.995Z,9.02
2023-04-16T02:39:22.218Z,8.18
2023-04-16T02:42:24.912Z,9.35
2023-04-16T02:45:28.305Z,8.82
2023-04-16T02:48:30.994Z,8.63
2023-04-16T02:51:33.842Z,9.57
2023-04-16T02:54:36.427Z,9.20
2023-04-16T02:57:38.962Z,10.15
2023-04-16T03:00:41.428Z,9.20
2023-04-16T03:03:43.942Z,8.90
2023-04-16T03:06:46.416Z,8.63
2023-04-16T03:09:49.028Z,8.18
2023-04-16T03:12:52.023Z,8.73
2023-04-16T03:15:54.610Z,8.30
2023-04-16T03:18:57.482Z,8.03
2023-04-16T03:22:00.657Z,8.15
2023-04-16T03:25:03.599Z,7.00
2023-04-16T03:28:07.083Z,7.32
2023-04-16T03:31:10.576Z,8.25
2023-04-16T03:34:13.858Z,7.57
2023-04-16T03:37:17.241Z,7.65
2023-04-16T03:40:19.878Z,7.53
2023-04-16T03:43:22.530Z,6.72
2023-04-16T03:46:25.487Z,7.05
2023-04-16T03:49:28.766Z,6.63
2023-04-16T03:52:34.357Z,7.50
2023-04-16T03:55:36.975Z,7.50
2023-04-16T03:58:39.642Z,6.72
2023-04-16T04:01:44.429Z,6.80
2023-04-16T04:04:47.564Z,7.70
2023-04-16T04:07:50.620Z,7.72
2023-04-16T04:10:53.213Z,7.15
2023-04-16T04:13:58.263Z,6.95
2023-04-16T04:17:01.837Z,7.18
2023-04-16T04:20:04.891Z,6.60
2023-04-16T04:23:07.795Z,6.22
2023-04-16T04:26:12.131Z,6.85
2023-04-16T04:29:15.711Z,6.85
2023-04-16T04:32:18.470Z,5.88
2023-04-16T04:35:24.226Z,5.87
2023-04-16T04:38:27.160Z,5.65
2023-04-16T04:41:30.055Z,6.10
2023-04-16T04:44:32.661Z,6.00
2023-04-16T04:47:35.702Z,6.57
2023-04-16T04:50:38.284Z,5.47
2023-04-16T04:53:40.937Z,6.05
2023-04-16T04:56:45.892Z,5.78
2023-04-16T04:59:49.824Z,6.18
2023-04-16T05:02:52.665Z,5.35
2023-04-16T05:05:55.180Z,6.50
2023-04-16T05:08:57.691Z,6.60
2023-04-16T05:12:00.258Z,6.35
2023-04-16T05:15:02.771Z,6.90
2023-04-16T05:18:05.681Z,7.40
2023-04-16T05:21:08.836Z,9.80
2023-04-16T05:24:12.561Z,7.95
2023-04-16T05:27:16.938Z,10.25
2023-04-16T05:30:19.582Z,7.25
2023-04-16T05:33:22.122Z,7.70
2023-04-16T05:36:24.668Z,6.53
2023-04-16T05:39:27.183Z,8.35
2023-04-16T05:42:29.752Z,6.80
2023-04-16T05:45:33.557Z,7.68
2023-04-16T05:48:36.396Z,7.07
2023-04-16T05:51:39.049Z,6.10
2023-04-16T05:54:41.528Z,6.10
2023-04-16T05:57:43.993Z,6.30
2023-04-16T06:00:46.743Z,6.35
2023-04-16T06:03:49.902Z,6.50
2023-04-16T06:06:52.448Z,7.97
2023-04-16T06:09:55.614Z,6.88
2023-04-16T06:12:59.299Z,6.00
2023-04-16T06:16:01.861Z,6.30
2023-04-16T06:19:04.590Z,6.07
2023-04-16T06:22:07.950Z,5.80
2023-04-16T06:25:10.601Z,6.05
2023-04-16T06:28:13.042Z,6.57
2023-04-16T06:31:15.727Z,5.72
2023-04-16T06:34:18.349Z,4.93
2023-04-16T06:37:21.022Z,3.67
2023-04-16T06:40:23.695Z,4.35
2023-04-16T06:43:26.446Z,4.32
2023-04-16T06:46:28.901Z,4.30
2023-04-16T06:49:31.384Z,4.47
2023-04-16T06:52:34.046Z,4.30
2023-04-16T06:55:36.592Z,5.18
2023-04-16T06:58:39.086Z,5.38
2023-04-16T07:01:41.813Z,5.13
2023-04-16T07:04:44.475Z,6.03
2023-04-16T07:07:46.920Z,5.07
2023-04-16T07:10:49.465Z,4.60
2023-04-16T07:13:53.892Z,7.30
2023-04-16T07:16:56.591Z,4.53
2023-04-16T07:19:59.240Z,5.72
2023-04-16T07:23:02.149Z,5.00
2023-04-16T07:26:04.785Z,3.35
2023-04-16T07:29:07.666Z,5.47
2023-04-16T07:32:10.383Z,3.60
2023-04-16T07:35:13.057Z,4.30
2023-04-16T07:38:16.562Z,5.83
2023-04-16T07:41:19.525Z,5.32
2023-04-16T07:44:22.047Z,4.35
2023-04-16T07:47:26.481Z,3.90
2023-04-16T07:50:29.222Z,3.90
2023-04-16T07:53:31.865Z,3.60
2023-04-16T07:56:34.491Z,2.67
2023-04-16T07:59:36.977Z,3.85
2023-04-16T08:02:39.798Z,3.45
2023-04-16T08:05:42.409Z,3.65
2023-04-16T08:08:45.672Z,4.23
2023-04-16T08:11:50.029Z,2.28
2023-04-16T08:14:53.781Z,3.13
2023-04-16T08:17:56.549Z,3.15
2023-04-16T08:20:59.166Z,3.17
2023-04-16T08:24:01.714Z,3.37
2023-04-16T08:27:17.315Z,3.63
2023-04-16T08:30:22.021Z,4.82
2023-04-16T08:33:24.734Z,3.75
2023-04-16T08:36:27.907Z,3.95
2023-04-16T08:39:30.566Z,3.53
2023-04-16T08:42:40.671Z,3.47
2023-04-16T08:45:44.116Z,3.97
2023-04-16T08:48:50.166Z,3.50
2023-04-16T08:51:54.943Z,3.45
2023-04-16T08:55:00.533Z,3.23
2023-04-16T08:58:09.599Z,3.40
2023-04-16T09:01:12.298Z,2.80
2023-04-16T09:04:16.501Z,2.55
2023-04-16T09:07:21.234Z,3.17
2023-04-16T09:10:27.125Z,2.60
2023-04-16T09:13:32.081Z,2.78
2023-04-16T09:16:35.669Z,2.75
2023-04-16T09:19:38.288Z,2.50
2023-04-16T09:22:41.645Z,2.55
2023-04-16T09:25:44.385Z,2.70
2023-04-16T09:28:50.906Z,2.80
2023-04-16T09:32:07.562Z,2.88
2023-04-16T09:35:10.395Z,3.20
2023-04-16T09:38:12.923Z,2.65
2023-04-16T09:41:18.638Z,3.00
2023-04-16T09:44:21.093Z,2.20
2023-04-16T09:47:24.735Z,2.22
2023-04-16T09:50:27.276Z,2.38
2023-04-16T09:53:31.707Z,2.15
2023-04-16T09:56:39.346Z,3.23
2023-04-16T09:59:41.919Z,6.85
2023-04-16T10:02:44.587Z,4.18
2023-04-16T10:05:47.099Z,4.03
2023-04-16T10:08:51.785Z,2.78
2023-04-16T10:11:54.525Z,2.10
2023-04-16T10:14:57.042Z,1.95
2023-04-16T10:18:00.487Z,5.05
2023-04-16T10:21:03.608Z,2.53
2023-04-16T10:24:08.327Z,2.03
2023-04-16T10:27:10.923Z,1.87
2023-04-16T10:30:15.678Z,1.85
2023-04-16T10:33:22.006Z,1.73
2023-04-16T10:36:26.676Z,1.88
2023-04-16T10:39:29.775Z,1.85
2023-04-16T10:42:32.489Z,1.87
2023-04-16T10:45:38.620Z,1.40
2023-04-16T10:48:49.637Z,1.63
2023-04-16T10:52:20.256Z,1.45
2023-04-16T10:55:25.059Z,1.55
2023-04-16T10:58:29.116Z,1.60
2023-04-16T11:01:37.378Z,1.10
2023-04-16T11:04:43.273Z,1.63
2023-04-16T11:07:49.852Z,1.40
2023-04-16T11:10:53.745Z,1.00
2023-04-16T11:13:57.170Z,1.53
2023-04-16T11:17:03.870Z,1.10
2023-04-16T11:20:19.300Z,1.20
2023-04-16T11:23:22.868Z,1.13
2023-04-16T11:26:29.510Z,0.82
2023-04-16T11:29:32.148Z,1.37
2023-04-16T11:32:36.616Z,1.30
2023-04-16T11:35:39.803Z,1.50
2023-04-16T11:38:43.083Z,1.10
2023-04-16T11:41:52.564Z,0.98
2023-04-16T11:44:56.389Z,1.47
2023-04-16T11:47:58.946Z,1.40
2023-04-16T11:51:01.502Z,1.40
2023-04-16T11:54:04.193Z,1.40
2023-04-16T11:57:06.863Z,1.25
2023-04-16T12:00:13.050Z,1.20
2023-04-16T12:03:16.084Z,1.15
2023-04-16T12:06:18.907Z,1.58
2023-04-16T12:09:26.373Z,1.20
2023-04-16T12:12:31.918Z,0.90
2023-04-16T12:15:52.872Z,0.90
2023-04-16T12:19:00.240Z,1.27
2023-04-16T12:22:02.836Z,1.58
2023-04-16T12:25:16.571Z,1.17
2023-04-16T12:28:30.014Z,0.80
2023-04-16T12:31:39.592Z,1.20
2023-04-16T12:34:51.376Z,1.00
2023-04-16T12:37:53.815Z,0.88
2023-04-16T12:40:57.778Z,1.30
2023-04-16T12:44:12.107Z,1.13
2023-04-16T12:47:14.655Z,1.23
2023-04-16T12:50:17.324Z,1.15
2023-04-16T12:53:19.945Z,2.10
2023-04-16T12:56:22.437Z,1.80
2023-04-16T12:59:24.952Z,1.10
2023-04-16T13:02:27.750Z,0.70
2023-04-16T13:05:30.488Z,0.70
2023-04-16T13:08:33.426Z,0.90
2023-04-16T13:11:35.930Z,0.88
2023-04-16T13:14:39.250Z,1.00
2023-04-16T13:17:41.761Z,0.90
2023-04-16T13:20:44.597Z,1.38
2023-04-16T13:23:47.163Z,1.05
2023-04-16T13:26:52.151Z,1.00
2023-04-16T13:29:54.910Z,0.93
2023-04-16T13:32:57.543Z,0.97
2023-04-16T13:36:00.442Z,1.05
2023-04-16T13:39:05.420Z,0.88
2023-04-16T13:42:08.604Z,0.45
2023-04-16T13:45:11.454Z,0.60
2023-04-16T13:48:14.337Z,0.57
2023-04-16T13:51:17.042Z,0.70
2023-04-16T13:54:20.103Z,0.80
2023-04-16T13:57:22.853Z,0.70
2023-04-16T14:00:26.498Z,0.70
2023-04-16T14:03:29.426Z,1.20
2023-04-16T14:06:33.154Z,0.77
2023-04-16T14:09:36.088Z,0.73
2023-04-16T14:12:39.290Z,0.43
2023-04-16T14:15:41.856Z,0.40
2023-04-16T14:18:44.707Z,0.50
2023-04-16T14:21:47.387Z,1.15
2023-04-16T14:24:49.895Z,1.00
2023-04-16T14:27:52.993Z,0.40
2023-04-16T14:30:55.913Z,0.50
2023-04-16T14:33:58.644Z,3.53
2023-04-16T14:37:01.398Z,2.30
2023-04-16T14:40:08.069Z,1.20
2023-04-16T14:43:10.973Z,1.17
2023-04-16T14:46:13.517Z,1.17
2023-04-16T14:49:16.843Z,1.07
2023-04-16T14:52:19.777Z,1.10
2023-04-16T14:55:22.363Z,0.75
2023-04-16T14:58:26.844Z,0.82
2023-04-16T15:01:30.130Z,0.75
2023-04-16T15:04:33.090Z,0.67
2023-04-16T15:07:36.937Z,1.05
2023-04-16T15:10:39.501Z,1.40
2023-04-16T15:13:42.068Z,0.82
2023-04-16T15:16:48.859Z,1.17
2023-04-16T15:19:52.353Z,1.00
2023-04-16T15:22:54.916Z,0.60
2023-04-16T15:25:58.383Z,0.70
2023-04-16T15:29:01.585Z,0.60
2023-04-16T15:32:04.640Z,0.98
2023-04-16T15:35:09.136Z,0.60
2023-04-16T15:38:13.376Z,0.75
2023-04-16T15:41:15.936Z,0.70
2023-04-16T15:44:18.513Z,1.45
2023-04-16T15:47:21.331Z,1.85
2023-04-16T15:50:25.763Z,2.87
2023-04-16T15:53:28.695Z,1.60
2023-04-16T15:56:32.255Z,2.15
2023-04-16T15:59:34.871Z,1.55
2023-04-16T16:02:38.260Z,1.20
2023-04-16T16:05:41.381Z,1.00
2023-04-16T16:08:44.411Z,0.57
2023-04-16T16:11:47.379Z,1.17
2023-04-16T16:14:49.896Z,0.75
2023-04-16T16:17:53.561Z,1.00
2023-04-16T16:20:57.765Z,0.73
2023-04-16T16:24:00.984Z,0.98
2023-04-16T16:27:03.910Z,1.00
2023-04-16T16:30:07.763Z,1.30
2023-04-16T16:33:11.538Z,3.33
2023-04-16T16:36:14.338Z,2.27
2023-04-16T16:39:17.210Z,1.33
2023-04-16T16:42:23.216Z,2.20
2023-04-16T16:45:27.255Z,6.18
2023-04-16T16:48:31.057Z,2.20
2023-04-16T16:51:36.057Z,1.20
2023-04-16T16:54:38.694Z,1.27
2023-04-16T16:57:41.904Z,1.20
2023-04-16T17:00:44.862Z,1.80
2023-04-16T17:03:48.158Z,3.70
2023-04-16T17:06:51.168Z,1.40
2023-04-16T17:09:54.396Z,0.90
2023-04-16T17:12:57.282Z,0.82
2023-04-16T17:16:00.039Z,1.10
2023-04-16T17:19:02.901Z,2.63
2023-04-16T17:22:05.995Z,1.83
2023-04-16T17:25:09.103Z,1.25
2023-04-16T17:28:11.790Z,1.63
2023-04-16T17:31:15.242Z,3.88
2023-04-16T17:34:20.500Z,3.35
2023-04-16T17:37:23.525Z,4.13
2023-04-16T17:40:26.398Z,6.65
2023-04-16T17:43:29.303Z,5.18
2023-04-16T17:46:32.324Z,8.88
2023-04-16T17:49:35.188Z,5.05
2023-04-16T17:52:38.170Z,3.57
2023-04-16T17:55:42.800Z,5.45
2023-04-16T17:58:46.014Z,2.72
2023-04-16T18:01:49.821Z,1.88
2023-04-16T18:04:52.846Z,1.48
2023-04-16T18:07:55.669Z,1.50
2023-04-16T18:10:58.627Z,2.40
2023-04-16T18:14:01.679Z,1.90
2023-04-16T18:17:06.695Z,1.55
2023-04-16T18:20:11.690Z,2.90
2023-04-16T18:23:14.496Z,2.13
2023-04-16T18:26:20.478Z,1.73
2023-04-16T18:29:25.570Z,6.07
2023-04-16T18:32:31.180Z,6.82
2023-04-16T18:35:34.422Z,2.90
2023-04-16T18:38:43.726Z,2.13
2023-04-16T18:41:56.222Z,1.73
2023-04-16T18:44:59.451Z,2.22
2023-04-16T18:48:04.232Z,2.30
2023-04-16T18:51:08.027Z,2.47
2023-04-16T18:54:10.555Z,1.53
2023-04-16T18:57:13.377Z,2.25
2023-04-16T19:00:16.694Z,2.85
2023-04-16T19:03:20.229Z,2.00
2023-04-16T19:06:23.057Z,2.00
2023-04-16T19:09:27.307Z,2.20
2023-04-16T19:12:31.639Z,2.47
2023-04-16T19:15:35.023Z,3.38
2023-04-16T19:18:39.158Z,2.50
2023-04-16T19:21:42.182Z,2.63
2023-04-16T19:24:45.036Z,2.40
2023-04-16T19:27:48.336Z,1.80
2023-04-16T19:30:52.671Z,2.30
2023-04-16T19:33:55.934Z,1.50
2023-04-16T19:36:58.493Z,1.30
2023-04-16T19:40:02.061Z,1.53
2023-04-16T19:43:04.969Z,1.95
2023-04-16T19:46:08.539Z,2.30
2023-04-16T19:49:11.636Z,1.50
2023-04-16T19:52:16.784Z,1.40
2023-04-16T19:55:20.134Z,1.07
2023-04-16T19:58:23.318Z,1.33
2023-04-16T20:01:26.152Z,1.60
2023-04-16T20:04:29.485Z,1.58
2023-04-16T20:07:32.286Z,1.42
2023-04-16T20:10:35.234Z,2.63
2023-04-16T20:13:38.168Z,1.52
2023-04-16T20:16:41.011Z,1.30
2023-04-16T20:19:47.480Z,1.15
2023-04-16T20:22:50.729Z,1.30
2023-04-16T20:25:53.286Z,1.27
2023-04-16T20:28:55.976Z,1.30
2023-04-16T20:31:58.439Z,1.45
2023-04-16T20:35:02.080Z,1.33
2023-04-16T20:38:04.825Z,1.10
2023-04-16T20:41:10.649Z,1.20
2023-04-16T20:44:18.235Z,1.10
2023-04-16T20:47:22.200Z,1.40
2023-04-16T20:50:25.603Z,1.05
2023-04-16T20:53:28.846Z,1.40
2023-04-16T20:56:31.408Z,1.60
2023-04-16T20:59:34.473Z,1.30
2023-04-16T21:02:37.265Z,1.13
2023-04-16T21:05:41.925Z,1.40
2023-04-16T21:08:44.569Z,1.42
2023-04-16T21:11:47.608Z,1.17
2023-04-16T21:14:50.096Z,1.70
2023-04-16T21:17:52.833Z,1.33
2023-04-16T21:20:56.180Z,1.27
2023-04-16T21:23:58.902Z,1.48
2023-04-16T21:27:01.815Z,1.30
2023-04-16T21:30:11.308Z,1.20
2023-04-16T21:33:16.159Z,1.38
2023-04-16T21:36:18.609Z,1.13
2023-04-16T21:39:21.934Z,1.30
2023-04-16T21:42:24.385Z,1.13
2023-04-16T21:45:27.652Z,1.35
2023-04-16T21:48:31.466Z,1.10
2023-04-16T21:51:34.124Z,1.08
2023-04-16T21:54:36.557Z,1.13
2023-04-16T21:57:39.940Z,1.13
2023-04-16T22:00:43.679Z,1.20
2023-04-16T22:03:50.609Z,1.20
2023-04-16T22:06:56.361Z,1.42
2023-04-16T22:09:59.008Z,1.08
2023-04-16T22:13:01.840Z,1.17
2023-04-16T22:16:05.897Z,0.82
2023-04-16T22:19:08.880Z,1.13
2023-04-16T22:22:11.436Z,1.08
2023-04-16T22:25:14.090Z,1.02
2023-04-16T22:28:16.661Z,0.90
2023-04-16T22:31:19.251Z,1.05
2023-04-16T22:34:21.801Z,0.98
2023-04-16T22:37:24.512Z,0.90
2023-04-16T22:40:27.202Z,0.90
2023-04-16T22:43:29.922Z,1.10
2023-04-16T22:46:32.651Z,1.00
2023-04-16T22:49:35.216Z,0.98
2023-04-16T22:52:38.062Z,0.80
2023-04-16T22:55:40.540Z,1.20
2023-04-16T22:58:42.982Z,0.97
2023-04-16T23:01:46.105Z,1.00
2023-04-16T23:04:48.792Z,1.08
2023-04-16T23:07:51.363Z,0.98
2023-04-16T23:10:54.216Z,0.90
2023-04-16T23:13:56.859Z,0.83
2023-04-16T23:16:59.536Z,1.00
2023-04-16T23:20:02.382Z,1.00
2023-04-16T23:23:05.029Z,0.90
2023-04-16T23:26:07.524Z,0.85
2023-04-16T23:29:10.382Z,0.90
2023-04-16T23:32:13.008Z,1.20
2023-04-16T23:35:22.913Z,0.95
2023-04-16T23:38:25.552Z,1.02
2023-04-16T23:41:29.563Z,0.98
2023-04-16T23:44:32.082Z,0.97
2023-04-16T23:47:34.624Z,0.70
2023-04-16T23:50:37.144Z,1.00
2023-04-16T23:53:40.911Z,1.08
2023-04-16T23:56:43.562Z,0.90
2023-04-16T23:59:46.082Z,0.70
